NCAR-RAP Real-Time Weather Data

Output produced by METARs form (06 May 2021  16:30 UTC)
found at http://weather.rap.ucar.edu/surface/
 
KWRL 061553Z AUTO 13006KT 10SM CLR 13/01 A3026 RMK AO2 SLP241 T01330011
KWRL 061453Z AUTO VRB03KT 10SM CLR 10/02 A3028 RMK AO2 SLP251 T01000017 58002
KWRL 061353Z AUTO 00000KT 10SM CLR 07/02 A3029 RMK AO2 SLP250 T00670022
KWRL 061253Z AUTO 00000KT 10SM CLR 03/00 A3029 RMK AO2 SLP252 T00280000
KWRL 061153Z AUTO 13005KT 10SM CLR 02/M01 A3028 RMK AO2 SLP253 T00171006 10056 20006 56002
KWRL 061053Z AUTO 15004KT 10SM CLR 02/M01 A3029 RMK AO2 SLP256 T00221006
KWRL 060953Z AUTO 17005KT 10SM CLR 02/M01 A3029 RMK AO2 SLP254 T00221011
KWRL 060853Z AUTO 00000KT 10SM CLR 04/M01 A3029 RMK AO2 SLP253 T00391006 50003
KWRL 060753Z AUTO 00000KT 10SM CLR 04/M01 A3030 RMK AO2 SLP258 T00391006
KWRL 060553Z AUTO 12007KT 10SM CLR 06/00 A3028 RMK AO2 SLP251 T00560000 10172 20050 51022
KWRL 060453Z AUTO 00000KT 10SM CLR 08/M02 A3026 RMK AO2 SLP245 T00781017
KWRL 060353Z AUTO 04003KT 10SM CLR 08/M01 A3024 RMK AO2 SLP240 T00781006
KWRL 060253Z AUTO 06003KT 10SM CLR 08/01 A3021 RMK AO2 SLP230 T00830006 53011